sensor_id;sensor_type;location;lat;lon;timestamp;P1;durP1;ratioP1;P2;durP2;ratioP2
37873;SDS011;23709;48.078;11.684;2024-01-27T05:26:31;13.45;;;5.38;;
37873;SDS011;23709;48.078;11.684;2024-01-27T05:29:04;12.57;;;4.93;;
37873;SDS011;23709;48.078;11.684;2024-01-27T05:31:36;10.52;;;4.72;;
37873;SDS011;23709;48.078;11.684;2024-01-27T05:34:08;11.20;;;4.30;;
37873;SDS011;23709;48.078;11.684;2024-01-27T05:36:41;19.20;;;5.25;;
37873;SDS011;23709;48.078;11.684;2024-01-27T05:39:14;11.82;;;4.97;;
37873;SDS011;23709;48.078;11.684;2024-01-27T05:41:46;14.00;;;5.83;;
37873;SDS011;23709;48.078;11.684;2024-01-27T05:44:19;18.15;;;6.20;;
37873;SDS011;23709;48.078;11.684;2024-01-27T05:46:51;18.70;;;5.03;;
37873;SDS011;23709;48.078;11.684;2024-01-27T05:49:24;10.60;;;4.70;;
37873;SDS011;23709;48.078;11.684;2024-01-27T05:51:56;14.82;;;6.38;;
37873;SDS011;23709;48.078;11.684;2024-01-27T05:54:28;15.13;;;7.65;;
37873;SDS011;23709;48.078;11.684;2024-01-27T05:57:01;21.33;;;10.50;;
37873;SDS011;23709;48.078;11.684;2024-01-27T05:59:35;25.05;;;11.32;;
37873;SDS011;23709;48.078;11.684;2024-01-27T06:02:07;16.13;;;6.18;;
37873;SDS011;23709;48.078;11.684;2024-01-27T06:04:39;16.55;;;5.80;;
37873;SDS011;23709;48.078;11.684;2024-01-27T06:07:12;15.00;;;6.20;;
37873;SDS011;23709;48.078;11.684;2024-01-27T06:09:44;12.98;;;6.18;;
37873;SDS011;23709;48.078;11.684;2024-01-27T06:12:16;14.57;;;6.28;;
37873;SDS011;23709;48.078;11.684;2024-01-27T06:14:49;10.45;;;5.10;;
37873;SDS011;23709;48.078;11.684;2024-01-27T06:17:21;11.13;;;5.68;;
37873;SDS011;23709;48.078;11.684;2024-01-27T06:19:54;11.55;;;5.75;;
37873;SDS011;23709;48.078;11.684;2024-01-27T06:22:27;14.95;;;5.93;;
37873;SDS011;23709;48.078;11.684;2024-01-27T06:24:59;18.75;;;6.47;;
37873;SDS011;23709;48.078;11.684;2024-01-27T06:27:32;14.38;;;7.25;;
37873;SDS011;23709;48.078;11.684;2024-01-27T06:30:04;16.05;;;6.18;;
37873;SDS011;23709;48.078;11.684;2024-01-27T06:32:38;19.77;;;6.32;;
37873;SDS011;23709;48.078;11.684;2024-01-27T06:35:10;19.07;;;6.60;;
37873;SDS011;23709;48.078;11.684;2024-01-27T06:37:42;19.27;;;6.10;;
37873;SDS011;23709;48.078;11.684;2024-01-27T06:40:16;13.50;;;6.43;;
37873;SDS011;23709;48.078;11.684;2024-01-27T06:42:48;18.50;;;6.80;;
37873;SDS011;23709;48.078;11.684;2024-01-27T06:45:20;24.65;;;7.25;;
37873;SDS011;23709;48.078;11.684;2024-01-27T06:47:53;17.77;;;7.20;;
37873;SDS011;23709;48.078;11.684;2024-01-27T06:50:25;12.43;;;7.53;;
37873;SDS011;23709;48.078;11.684;2024-01-27T06:52:57;19.52;;;9.50;;
37873;SDS011;23709;48.078;11.684;2024-01-27T06:55:31;20.58;;;8.50;;
37873;SDS011;23709;48.078;11.684;2024-01-27T06:58:03;18.48;;;8.63;;
37873;SDS011;23709;48.078;11.684;2024-01-27T07:00:35;20.15;;;8.63;;
37873;SDS011;23709;48.078;11.684;2024-01-27T07:03:08;14.53;;;8.13;;
37873;SDS011;23709;48.078;11.684;2024-01-27T07:05:44;20.88;;;7.15;;
37873;SDS011;23709;48.078;11.684;2024-01-27T07:08:17;14.77;;;7.10;;
37873;SDS011;23709;48.078;11.684;2024-01-27T07:10:49;15.75;;;7.57;;
37873;SDS011;23709;48.078;11.684;2024-01-27T07:13:22;12.93;;;5.95;;
37873;SDS011;23709;48.078;11.684;2024-01-27T07:15:54;9.27;;;5.07;;
37873;SDS011;23709;48.078;11.684;2024-01-27T16:52:27;13.63;;;4.10;;
37873;SDS011;23709;48.078;11.684;2024-01-27T16:55:00;26.58;;;4.93;;
37873;SDS011;23709;48.078;11.684;2024-01-27T16:57:32;15.43;;;5.35;;
37873;SDS011;23709;48.078;11.684;2024-01-27T17:00:04;15.40;;;5.25;;
37873;SDS011;23709;48.078;11.684;2024-01-27T17:02:37;14.63;;;4.53;;
37873;SDS011;23709;48.078;11.684;2024-01-27T17:05:10;22.40;;;8.13;;
37873;SDS011;23709;48.078;11.684;2024-01-27T17:07:42;20.17;;;8.13;;
37873;SDS011;23709;48.078;11.684;2024-01-27T17:10:15;19.67;;;7.88;;
37873;SDS011;23709;48.078;11.684;2024-01-27T17:12:47;21.80;;;6.97;;
37873;SDS011;23709;48.078;11.684;2024-01-27T17:15:19;18.58;;;7.88;;
37873;SDS011;23709;48.078;11.684;2024-01-27T17:17:53;23.10;;;8.05;;
37873;SDS011;23709;48.078;11.684;2024-01-27T17:20:25;44.77;;;16.13;;
37873;SDS011;23709;48.078;11.684;2024-01-27T17:22:57;37.25;;;14.88;;
37873;SDS011;23709;48.078;11.684;2024-01-27T17:25:30;37.23;;;14.97;;
37873;SDS011;23709;48.078;11.684;2024-01-27T17:28:02;39.17;;;13.82;;
37873;SDS011;23709;48.078;11.684;2024-01-27T17:30:35;42.33;;;14.00;;
37873;SDS011;23709;48.078;11.684;2024-01-27T17:33:08;36.85;;;13.50;;
37873;SDS011;23709;48.078;11.684;2024-01-27T17:35:41;34.43;;;11.90;;
37873;SDS011;23709;48.078;11.684;2024-01-27T17:38:13;36.20;;;12.98;;
37873;SDS011;23709;48.078;11.684;2024-01-27T17:40:46;33.50;;;12.87;;
37873;SDS011;23709;48.078;11.684;2024-01-27T17:43:19;31.17;;;13.13;;
37873;SDS011;23709;48.078;11.684;2024-01-27T17:45:51;36.25;;;12.85;;
37873;SDS011;23709;48.078;11.684;2024-01-27T17:48:23;26.63;;;13.10;;
37873;SDS011;23709;48.078;11.684;2024-01-27T17:50:56;25.83;;;11.85;;
37873;SDS011;23709;48.078;11.684;2024-01-27T17:53:28;27.23;;;12.50;;
37873;SDS011;23709;48.078;11.684;2024-01-27T17:56:00;23.45;;;11.57;;
37873;SDS011;23709;48.078;11.684;2024-01-27T17:58:33;29.17;;;12.65;;
37873;SDS011;23709;48.078;11.684;2024-01-27T18:01:05;32.88;;;12.02;;
37873;SDS011;23709;48.078;11.684;2024-01-27T18:03:38;25.63;;;11.80;;
37873;SDS011;23709;48.078;11.684;2024-01-27T18:06:10;25.60;;;11.63;;
37873;SDS011;23709;48.078;11.684;2024-01-27T18:08:42;22.98;;;10.77;;
37873;SDS011;23709;48.078;11.684;2024-01-27T18:11:15;25.50;;;10.38;;
37873;SDS011;23709;48.078;11.684;2024-01-27T18:13:47;21.95;;;9.70;;
37873;SDS011;23709;48.078;11.684;2024-01-27T18:16:20;19.55;;;8.70;;
37873;SDS011;23709;48.078;11.684;2024-01-27T18:18:53;22.90;;;9.27;;
37873;SDS011;23709;48.078;11.684;2024-01-27T18:21:25;21.90;;;9.55;;
37873;SDS011;23709;48.078;11.684;2024-01-27T18:23:57;23.42;;;9.50;;
37873;SDS011;23709;48.078;11.684;2024-01-27T18:26:30;22.25;;;9.25;;
37873;SDS011;23709;48.078;11.684;2024-01-27T18:29:03;18.95;;;10.00;;
37873;SDS011;23709;48.078;11.684;2024-01-27T18:31:35;21.48;;;10.40;;
37873;SDS011;23709;48.078;11.684;2024-01-27T18:34:12;27.45;;;8.65;;
37873;SDS011;23709;48.078;11.684;2024-01-27T18:36:49;20.42;;;9.23;;
37873;SDS011;23709;48.078;11.684;2024-01-27T18:39:22;25.55;;;9.40;;
37873;SDS011;23709;48.078;11.684;2024-01-27T18:41:54;19.70;;;9.73;;
37873;SDS011;23709;48.078;11.684;2024-01-27T18:44:26;24.15;;;10.75;;
37873;SDS011;23709;48.078;11.684;2024-01-27T18:46:59;22.30;;;11.70;;
37873;SDS011;23709;48.078;11.684;2024-01-27T18:49:31;20.40;;;12.15;;
37873;SDS011;23709;48.078;11.684;2024-01-27T18:52:04;21.25;;;12.40;;
37873;SDS011;23709;48.078;11.684;2024-01-27T18:54:37;23.83;;;11.07;;
37873;SDS011;23709;48.078;11.684;2024-01-27T18:57:10;27.20;;;11.23;;
37873;SDS011;23709;48.078;11.684;2024-01-27T18:59:42;22.42;;;11.15;;
37873;SDS011;23709;48.078;11.684;2024-01-27T19:02:15;19.45;;;10.98;;
37873;SDS011;23709;48.078;11.684;2024-01-27T19:04:47;18.98;;;9.80;;
37873;SDS011;23709;48.078;11.684;2024-01-27T19:07:20;24.10;;;9.93;;
37873;SDS011;23709;48.078;11.684;2024-01-27T19:09:52;22.17;;;9.55;;
37873;SDS011;23709;48.078;11.684;2024-01-27T19:12:24;22.48;;;9.73;;
37873;SDS011;23709;48.078;11.684;2024-01-27T19:14:57;23.50;;;11.10;;
37873;SDS011;23709;48.078;11.684;2024-01-27T19:17:29;26.55;;;10.75;;
37873;SDS011;23709;48.078;11.684;2024-01-27T19:20:01;27.98;;;14.63;;
37873;SDS011;23709;48.078;11.684;2024-01-27T19:22:35;25.58;;;13.77;;
37873;SDS011;23709;48.078;11.684;2024-01-27T19:25:07;26.50;;;14.10;;
37873;SDS011;23709;48.078;11.684;2024-01-27T19:27:40;20.70;;;10.93;;
37873;SDS011;23709;48.078;11.684;2024-01-27T19:30:12;34.28;;;16.70;;
37873;SDS011;23709;48.078;11.684;2024-01-27T19:32:45;33.57;;;15.33;;
37873;SDS011;23709;48.078;11.684;2024-01-27T19:35:17;66.53;;;27.40;;
37873;SDS011;23709;48.078;11.684;2024-01-27T19:37:52;47.90;;;20.52;;
37873;SDS011;23709;48.078;11.684;2024-01-27T19:40:24;39.30;;;19.48;;
37873;SDS011;23709;48.078;11.684;2024-01-27T19:42:56;51.83;;;23.13;;
37873;SDS011;23709;48.078;11.684;2024-01-27T19:45:29;42.53;;;21.10;;
37873;SDS011;23709;48.078;11.684;2024-01-27T19:48:01;39.40;;;20.05;;
37873;SDS011;23709;48.078;11.684;2024-01-27T19:50:34;43.38;;;22.38;;
37873;SDS011;23709;48.078;11.684;2024-01-27T19:53:06;49.45;;;22.88;;
37873;SDS011;23709;48.078;11.684;2024-01-27T19:55:43;53.42;;;24.67;;
37873;SDS011;23709;48.078;11.684;2024-01-27T19:58:16;51.83;;;24.45;;
37873;SDS011;23709;48.078;11.684;2024-01-27T20:00:48;55.83;;;27.38;;
37873;SDS011;23709;48.078;11.684;2024-01-27T20:03:20;52.97;;;28.05;;
37873;SDS011;23709;48.078;11.684;2024-01-27T20:05:53;59.72;;;29.35;;
37873;SDS011;23709;48.078;11.684;2024-01-27T20:08:26;47.88;;;25.73;;
37873;SDS011;23709;48.078;11.684;2024-01-27T20:10:58;52.47;;;29.60;;
37873;SDS011;23709;48.078;11.684;2024-01-27T20:13:30;57.03;;;28.58;;
37873;SDS011;23709;48.078;11.684;2024-01-27T20:16:03;56.47;;;27.25;;
37873;SDS011;23709;48.078;11.684;2024-01-27T20:18:35;49.65;;;26.25;;
37873;SDS011;23709;48.078;11.684;2024-01-27T20:21:08;46.90;;;23.67;;
37873;SDS011;23709;48.078;11.684;2024-01-27T20:23:41;39.25;;;21.30;;
37873;SDS011;23709;48.078;11.684;2024-01-27T20:26:13;41.97;;;20.10;;
37873;SDS011;23709;48.078;11.684;2024-01-27T20:28:45;38.67;;;20.17;;
37873;SDS011;23709;48.078;11.684;2024-01-27T20:31:18;34.30;;;19.20;;
37873;SDS011;23709;48.078;11.684;2024-01-27T20:33:50;35.55;;;18.85;;
37873;SDS011;23709;48.078;11.684;2024-01-27T20:36:23;32.83;;;18.23;;
37873;SDS011;23709;48.078;11.684;2024-01-27T20:41:29;35.45;;;16.95;;
37873;SDS011;23709;48.078;11.684;2024-01-27T20:44:02;29.83;;;17.55;;
37873;SDS011;23709;48.078;11.684;2024-01-27T20:46:34;32.83;;;17.40;;
